Airport View

Enter AWOS ICAO identifier for current METAR.

ex. KFNL

KSVN 262256Z AUTO 00000KT 10SM CLR 13/01 A3000 RMK AO2 SLP162 T01290012 $

26 Jan 2020 23:41

Other Area AWOS: KSAV - KLHW - KHXD - KARW

TAF KSVN 262100Z 2621/2803 27006KT 9999 SKC QNH2993INS BECMG 2702/2703 29009KT 9999 SCT030 QNH2998INS BECMG 2708/2709 28006KT 9000 -DZ BKN040 OVC080 QNH2994INS BECMG 2714/2715 27009KT 8000 -SHRA BKN015 QNH3006INS BECMG 2718/2719 32012KT 8000 -SHRA BKN020 QNH3006INS TX16/2621Z TN03/2713Z